Time;durP1;ratioP1;P1;durP2;ratioP2;P2;SDS_P1;SDS_P2;PMS_P1;PMS_P2;Temp;Humidity;BMP_temperature;BMP_pressure;BME280_temperature;BME280_humidity;BME280_pressure;Samples;Min_cycle;Max_cycle;Signal;HPM_P1;HPM_P2
2022/03/19 00:01:59;;;;;;;36.85;22.45;;;6.60;99.90;;;;;;4996923;28;20077;-71
2022/03/19 00:04:25;;;;;;;38.83;23.75;;;6.50;99.90;;;;;;4994770;28;20034;-71
2022/03/19 00:06:51;;;;;;;30.83;21.95;;;6.40;99.90;;;;;;4993618;28;20084;-71
2022/03/19 00:09:17;;;;;;;28.83;21.45;;;6.40;99.90;;;;;;4994744;28;20053;-71
2022/03/19 00:11:43;;;;;;;28.33;22.08;;;6.30;99.90;;;;;;4990465;28;20027;-71
2022/03/19 00:14:12;;;;;;;32.03;23.17;;;6.20;99.90;;;;;;4996853;28;20457;-71
2022/03/19 00:16:38;;;;;;;28.38;21.35;;;6.20;99.90;;;;;;4993086;28;20045;-70
2022/03/19 00:19:04;;;;;;;29.65;21.23;;;6.20;99.90;;;;;;4994657;28;20053;-71
2022/03/19 00:21:30;;;;;;;36.42;22.90;;;6.20;99.90;;;;;;4994513;28;20064;-70
2022/03/19 00:23:55;;;;;;;31.25;21.95;;;6.20;99.90;;;;;;4990397;28;20042;-71
2022/03/19 00:26:21;;;;;;;92.03;65.85;;;6.20;99.90;;;;;;4994599;28;20065;-70
2022/03/19 00:28:47;;;;;;;62.40;45.85;;;6.20;99.90;;;;;;4995938;28;20499;-71
2022/03/19 00:31:13;;;;;;;51.90;36.97;;;6.20;99.90;;;;;;4993085;28;20038;-70
2022/03/19 00:33:38;;;;;;;38.22;28.00;;;6.30;99.90;;;;;;4994181;28;20033;-70
2022/03/19 00:36:04;;;;;;;42.15;29.75;;;6.40;99.90;;;;;;4991730;28;20054;-71
2022/03/19 00:38:30;;;;;;;38.45;29.95;;;6.30;99.90;;;;;;4992026;28;20035;-70
2022/03/19 00:40:55;;;;;;;33.50;25.33;;;6.20;99.90;;;;;;4996256;28;20427;-71
2022/03/19 00:43:21;;;;;;;32.53;25.02;;;6.40;99.90;;;;;;4995037;28;20042;-71
2022/03/19 00:45:48;;;;;;;41.47;29.02;;;6.30;99.90;;;;;;4997062;28;20041;-71
2022/03/19 00:48:15;;;;;;;35.55;26.52;;;6.20;99.90;;;;;;4996043;28;20504;-71
2022/03/19 00:50:40;;;;;;;40.67;29.95;;;6.20;99.90;;;;;;4991870;28;20029;-70
2022/03/19 00:53:06;;;;;;;86.97;57.28;;;6.10;99.90;;;;;;4998267;28;20281;-72
2022/03/19 00:55:32;;;;;;;60.88;42.00;;;6.10;99.90;;;;;;4994404;28;20475;-69
2022/03/19 00:57:58;;;;;;;35.03;25.20;;;6.00;99.90;;;;;;4995856;28;20034;-71
2022/03/19 01:00:26;;;;;;;32.25;23.63;;;5.90;99.90;;;;;;4996588;28;20028;-71
2022/03/19 01:02:53;;;;;;;37.08;25.13;;;5.80;99.90;;;;;;4991932;28;20030;-71
2022/03/19 01:05:19;;;;;;;37.97;24.90;;;5.70;99.90;;;;;;4996377;28;20038;-71
2022/03/19 01:07:53;;;;;;;35.42;24.67;;;5.60;99.90;;;;;;4996233;28;20523;-71
2022/03/19 01:10:22;;;;;;;37.05;26.05;;;5.60;99.90;;;;;;4996837;28;20026;-71
2022/03/19 01:12:49;;;;;;;34.58;25.90;;;5.60;99.90;;;;;;4996720;28;20026;-72
2022/03/19 01:15:16;;;;;;;39.92;30.15;;;5.50;99.90;;;;;;4995063;28;20402;-71
2022/03/19 01:17:42;;;;;;;45.83;32.65;;;5.50;99.90;;;;;;4992691;28;20018;-71
2022/03/19 01:20:11;;;;;;;50.28;36.95;;;5.60;99.90;;;;;;4998855;28;20034;-71
2022/03/19 01:22:43;;;;;;;61.50;42.92;;;5.60;99.90;;;;;;4996465;28;20061;-72
2022/03/19 01:25:10;;;;;;;65.60;47.20;;;5.60;99.90;;;;;;4996524;28;20415;-71
2022/03/19 01:27:37;;;;;;;52.45;38.35;;;5.60;99.90;;;;;;4996523;28;20049;-71
2022/03/19 01:30:06;;;;;;;59.63;42.53;;;5.40;99.90;;;;;;4994999;28;20125;-72
2022/03/19 01:32:32;;;;;;;39.63;30.23;;;5.20;99.90;;;;;;4993695;28;20030;-71
2022/03/19 01:34:59;;;;;;;97.53;69.15;;;5.30;99.90;;;;;;4996646;28;20026;-72
2022/03/19 01:37:24;;;;;;;77.60;56.85;;;5.30;99.90;;;;;;4996387;28;20033;-72
2022/03/19 01:39:54;;;;;;;54.62;41.06;;;5.40;99.90;;;;;;4968076;28;1284871;-64
2022/03/19 01:42:32;;;;;;;78.00;57.25;;;5.40;99.90;;;;;;4997555;28;20037;-71
2022/03/19 01:44:58;;;;;;;156.23;97.57;;;5.30;99.90;;;;;;4993290;28;20038;-71
2022/03/19 01:47:26;;;;;;;141.80;102.32;;;5.40;99.90;;;;;;4996557;28;20061;-70
2022/03/19 01:49:52;;;;;;;135.25;99.75;;;5.50;99.90;;;;;;4999097;28;20129;-70
2022/03/19 01:52:18;;;;;;;47.45;34.88;;;5.50;99.90;;;;;;4997180;28;20113;-70
2022/03/19 01:54:48;;;;;;;35.50;25.60;;;5.40;99.90;;;;;;4995484;28;20034;-71
2022/03/19 01:57:18;;;;;;;32.58;25.38;;;5.20;99.90;;;;;;4996486;28;20025;-71
2022/03/19 01:59:44;;;;;;;35.75;26.75;;;4.90;99.90;;;;;;4992926;28;20046;-70
2022/03/19 02:02:11;;;;;;;37.55;27.40;;;4.90;99.90;;;;;;4999221;28;20144;-70
2022/03/19 02:04:40;;;;;;;42.20;33.35;;;4.80;99.90;;;;;;4996729;28;20041;-70
2022/03/19 02:07:10;;;;;;;44.97;33.22;;;4.90;99.90;;;;;;4996851;28;20031;-70
2022/03/19 02:09:39;;;;;;;42.63;32.03;;;4.90;99.90;;;;;;4996721;28;20491;-70
2022/03/19 02:12:06;;;;;;;44.30;32.63;;;4.90;99.90;;;;;;4993992;28;20062;-70
2022/03/19 02:14:37;;;;;;;45.17;31.60;;;5.00;99.90;;;;;;4993840;28;20117;-70
2022/03/19 02:17:04;;;;;;;36.80;29.23;;;5.00;99.90;;;;;;4998646;28;20556;-71
2022/03/19 02:19:31;;;;;;;33.00;26.90;;;4.80;99.90;;;;;;4996820;28;20024;-71
2022/03/19 02:21:57;;;;;;;34.05;26.50;;;4.80;99.90;;;;;;4996516;28;20562;-71
2022/03/19 02:27:08;;;;;;;34.05;24.58;;;4.90;99.90;;;;;;4995459;28;20072;-72
2022/03/19 02:29:33;;;;;;;82.28;56.42;;;5.00;99.90;;;;;;4993395;28;20030;-71
2022/03/19 02:32:03;;;;;;;173.85;116.65;;;5.00;99.90;;;;;;4998485;28;20355;-71
2022/03/19 02:34:29;;;;;;;147.75;100.68;;;5.00;99.90;;;;;;4995012;28;20053;-71
2022/03/19 02:36:55;;;;;;;104.43;74.53;;;5.00;99.90;;;;;;4996546;28;20089;-71
2022/03/19 02:39:28;;;;;;;80.53;57.60;;;5.00;99.90;;;;;;4996704;28;20029;-71
2022/03/19 02:41:56;;;;;;;38.00;26.73;;;4.90;99.90;;;;;;4992503;28;20145;-71
2022/03/19 02:44:23;;;;;;;34.72;25.30;;;4.80;99.90;;;;;;4996405;28;20039;-71
2022/03/19 02:46:52;;;;;;;32.88;25.30;;;4.70;99.90;;;;;;4997110;28;20546;-71
2022/03/19 02:49:19;;;;;;;37.00;26.98;;;4.70;99.90;;;;;;4996181;28;20030;-71
2022/03/19 02:51:46;;;;;;;27.95;23.90;;;4.60;99.90;;;;;;4994585;28;20451;-71
2022/03/19 02:54:15;;;;;;;35.03;24.40;;;4.70;99.90;;;;;;4995315;28;20068;-71
2022/03/19 02:56:42;;;;;;;29.35;23.30;;;4.60;99.90;;;;;;4990906;28;20034;-71
2022/03/19 02:59:12;;;;;;;28.00;22.60;;;4.60;99.90;;;;;;4998142;28;20110;-71
2022/03/19 03:01:39;;;;;;;29.92;22.92;;;4.80;99.90;;;;;;4995864;28;20031;-72
2022/03/19 03:04:05;;;;;;;27.75;22.58;;;4.70;99.90;;;;;;4994139;28;20106;-71
2022/03/19 03:06:36;;;;;;;31.17;23.00;;;4.80;99.90;;;;;;4995264;28;20033;-71
2022/03/19 03:09:03;;;;;;;35.45;24.60;;;4.80;99.90;;;;;;4993716;28;20515;-71
2022/03/19 03:11:29;;;;;;;34.00;23.67;;;4.70;99.90;;;;;;4994505;28;20037;-72
2022/03/19 03:13:55;;;;;;;31.42;23.27;;;4.70;99.90;;;;;;4995400;28;20032;-72
2022/03/19 03:16:21;;;;;;;29.40;22.77;;;4.60;99.90;;;;;;4995464;28;20030;-72
2022/03/19 03:18:47;;;;;;;33.72;24.58;;;4.60;99.90;;;;;;4995793;28;20030;-71
2022/03/19 03:21:13;;;;;;;32.15;24.92;;;4.70;99.90;;;;;;4993400;28;20517;-71
2022/03/19 03:23:39;;;;;;;40.25;29.13;;;4.70;99.90;;;;;;4992105;28;20022;-72
2022/03/19 03:26:05;;;;;;;32.13;25.25;;;5.20;99.90;;;;;;4997956;28;20046;-71
2022/03/19 03:28:30;;;;;;;38.47;27.73;;;5.30;99.90;;;;;;4995128;28;20484;-71
2022/03/19 03:30:56;;;;;;;36.40;26.98;;;5.30;99.90;;;;;;4993786;28;20038;-71
2022/03/19 03:33:22;;;;;;;41.38;32.28;;;5.30;99.90;;;;;;4994481;28;20038;-71
2022/03/19 03:35:49;;;;;;;38.25;28.48;;;5.40;99.90;;;;;;4991255;28;20041;-71
2022/03/19 03:38:15;;;;;;;34.30;26.17;;;5.30;99.90;;;;;;4997262;28;20014;-72
2022/03/19 03:40:41;;;;;;;32.75;23.05;;;5.10;99.90;;;;;;4993903;28;20057;-72
2022/03/19 03:43:08;;;;;;;34.40;27.27;;;5.10;99.90;;;;;;4993586;28;20027;-72
2022/03/19 03:45:35;;;;;;;35.03;27.10;;;5.30;99.90;;;;;;4995024;28;20061;-72
2022/03/19 03:48:01;;;;;;;34.50;25.98;;;5.50;99.90;;;;;;4992796;28;20042;-72
2022/03/19 03:50:27;;;;;;;40.08;29.13;;;5.50;99.90;;;;;;4994636;28;20033;-72
2022/03/19 03:52:54;;;;;;;40.10;28.60;;;5.90;99.90;;;;;;4994898;28;20026;-72
2022/03/19 03:55:20;;;;;;;42.63;30.13;;;6.10;99.90;;;;;;4995089;28;20041;-72
2022/03/19 03:57:46;;;;;;;40.53;28.67;;;6.40;99.90;;;;;;4994974;28;20034;-72
2022/03/19 04:00:13;;;;;;;39.53;30.02;;;6.60;99.90;;;;;;4994245;28;20026;-72
2022/03/19 04:02:39;;;;;;;36.53;28.88;;;6.90;99.90;;;;;;4991430;28;20035;-72
2022/03/19 04:05:06;;;;;;;36.40;28.67;;;7.10;99.90;;;;;;4997227;28;20030;-71
2022/03/19 04:07:32;;;;;;;36.58;27.35;;;7.10;99.90;;;;;;4995074;28;20038;-72
2022/03/19 04:09:58;;;;;;;36.97;26.27;;;7.30;99.90;;;;;;4991646;28;20030;-72
2022/03/19 04:12:24;;;;;;;33.58;25.90;;;7.40;99.90;;;;;;4994404;28;20057;-72
2022/03/19 04:14:52;;;;;;;33.35;25.17;;;7.40;99.90;;;;;;4991272;28;20223;-72
2022/03/19 04:17:18;;;;;;;32.45;24.95;;;7.50;99.90;;;;;;4995784;28;20061;-72
2022/03/19 04:19:45;;;;;;;33.67;24.67;;;7.70;99.90;;;;;;4995366;28;20396;-72
2022/03/19 04:22:11;;;;;;;27.05;23.67;;;7.70;99.90;;;;;;4993408;28;20046;-72
2022/03/19 04:24:37;;;;;;;26.80;23.42;;;7.90;99.90;;;;;;4994579;28;20034;-71
2022/03/19 04:27:03;;;;;;;27.25;23.13;;;7.90;99.90;;;;;;4992691;28;20057;-72
2022/03/19 04:29:29;;;;;;;28.13;22.75;;;8.00;99.90;;;;;;4993464;28;20029;-72
2022/03/19 04:31:55;;;;;;;28.75;22.45;;;8.10;99.90;;;;;;4994455;28;20031;-71
2022/03/19 04:34:21;;;;;;;26.02;21.20;;;8.20;99.90;;;;;;4994749;28;20034;-72
2022/03/19 04:36:47;;;;;;;26.98;21.33;;;8.30;99.90;;;;;;4994546;28;20058;-72
2022/03/19 04:39:13;;;;;;;23.73;21.13;;;8.40;99.90;;;;;;4993294;28;20033;-72
2022/03/19 04:41:39;;;;;;;26.83;20.75;;;8.50;99.90;;;;;;4991021;28;20102;-72
2022/03/19 04:44:07;;;;;;;23.35;20.58;;;8.60;99.90;;;;;;4996701;28;20037;-72
2022/03/19 04:46:34;;;;;;;23.30;19.98;;;8.70;99.90;;;;;;4994843;28;20044;-72
2022/03/19 04:49:00;;;;;;;22.85;19.00;;;8.70;99.90;;;;;;4993337;28;20026;-72
2022/03/19 04:51:30;;;;;;;24.02;19.25;;;8.80;99.90;;;;;;4994551;28;20561;-72
2022/03/19 04:53:56;;;;;;;21.83;18.48;;;8.90;99.90;;;;;;4991125;28;20077;-72
2022/03/19 04:56:27;;;;;;;25.40;19.27;;;8.90;99.90;;;;;;4994542;28;20556;-72
2022/03/19 04:58:55;;;;;;;22.20;18.48;;;8.90;99.90;;;;;;4995909;28;20034;-72
2022/03/19 05:01:24;;;;;;;24.17;18.58;;;8.90;99.90;;;;;;4993117;28;20030;-72
2022/03/19 05:03:49;;;;;;;22.30;18.65;;;8.90;99.90;;;;;;4994819;28;20450;-72
2022/03/19 05:06:15;;;;;;;21.80;19.40;;;8.90;99.90;;;;;;4994016;28;20033;-72
2022/03/19 05:08:41;;;;;;;20.50;17.60;;;8.80;99.90;;;;;;4989868;28;20117;-72
2022/03/19 05:11:12;;;;;;;22.05;18.15;;;8.80;99.90;;;;;;4995688;28;20076;-72
2022/03/19 05:13:45;;;;;;;23.75;19.13;;;8.70;99.90;;;;;;4994693;28;20037;-72
2022/03/19 05:16:11;;;;;;;23.97;17.83;;;8.70;99.90;;;;;;4994280;28;20031;-71
2022/03/19 05:18:38;;;;;;;22.13;18.10;;;8.80;99.90;;;;;;4994241;28;20022;-71
2022/03/19 05:21:04;;;;;;;21.65;18.05;;;8.70;99.90;;;;;;4992299;28;20058;-72
2022/03/19 05:23:31;;;;;;;22.58;17.52;;;8.70;99.90;;;;;;4991873;28;20038;-72
2022/03/19 05:25:58;;;;;;;24.55;17.17;;;8.70;99.90;;;;;;4996022;28;20034;-72
2022/03/19 05:28:24;;;;;;;23.67;18.25;;;8.70;99.90;;;;;;4993943;28;20038;-72
2022/03/19 05:30:51;;;;;;;18.70;16.65;;;8.70;99.90;;;;;;4997713;28;20033;-72
2022/03/19 05:33:17;;;;;;;20.63;17.35;;;8.60;99.90;;;;;;4997265;28;20033;-72
2022/03/19 05:35:44;;;;;;;22.45;17.02;;;8.60;99.90;;;;;;4993569;28;20487;-72
2022/03/19 05:38:11;;;;;;;18.67;16.67;;;8.50;99.90;;;;;;4999248;28;20045;-72
2022/03/19 05:40:37;;;;;;;20.83;18.30;;;8.60;99.90;;;;;;4995818;28;20541;-71
2022/03/19 05:43:03;;;;;;;22.83;18.15;;;8.50;99.90;;;;;;4997475;28;20038;-72
2022/03/19 05:45:29;;;;;;;23.55;18.50;;;8.50;99.90;;;;;;4997341;28;20565;-72
2022/03/19 05:47:54;;;;;;;22.17;18.40;;;8.50;99.90;;;;;;4992754;28;20023;-72
2022/03/19 05:50:20;;;;;;;19.88;17.88;;;8.50;99.90;;;;;;4998172;28;20026;-72
2022/03/19 05:52:46;;;;;;;22.00;18.35;;;8.50;99.90;;;;;;4997693;28;20018;-71
2022/03/19 05:55:14;;;;;;;22.00;19.38;;;8.40;99.90;;;;;;4997264;28;20045;-72
2022/03/19 05:57:40;;;;;;;22.90;18.70;;;8.40;99.90;;;;;;4997627;28;20033;-72
2022/03/19 06:00:08;;;;;;;21.58;19.27;;;8.30;99.90;;;;;;4995466;28;20419;-72
2022/03/19 06:02:41;;;;;;;21.10;18.75;;;8.30;99.90;;;;;;4994555;28;20583;-72
2022/03/19 06:05:08;;;;;;;22.70;18.90;;;8.30;99.90;;;;;;4999135;28;20399;-71
2022/03/19 06:07:34;;;;;;;22.10;19.67;;;8.30;99.90;;;;;;4995597;28;20034;-72
2022/03/19 06:09:59;;;;;;;23.58;19.02;;;8.30;99.90;;;;;;4996823;28;20176;-72
2022/03/19 06:12:25;;;;;;;21.58;19.27;;;8.40;99.90;;;;;;4996920;28;20419;-72
2022/03/19 06:14:53;;;;;;;22.65;18.70;;;8.40;99.90;;;;;;4993188;28;20023;-72
2022/03/19 06:17:20;;;;;;;22.27;19.02;;;8.40;99.90;;;;;;4998292;28;20041;-72
2022/03/19 06:19:46;;;;;;;23.00;19.17;;;8.40;99.90;;;;;;4996121;28;20114;-72
2022/03/19 06:22:12;;;;;;;21.98;18.58;;;8.40;99.90;;;;;;4996340;28;20116;-72
2022/03/19 06:24:37;;;;;;;22.13;19.17;;;8.50;99.90;;;;;;4996970;28;20104;-71
2022/03/19 06:27:04;;;;;;;22.02;18.13;;;8.50;99.90;;;;;;4993115;28;20077;-71
2022/03/19 06:29:30;;;;;;;22.73;18.45;;;8.60;99.90;;;;;;4995021;28;20093;-72
2022/03/19 06:31:56;;;;;;;21.20;18.63;;;8.50;99.90;;;;;;4998380;28;20116;-72
2022/03/19 06:34:21;;;;;;;20.42;17.75;;;8.60;99.90;;;;;;4996483;28;20511;-71
2022/03/19 06:39:31;;;;;;;20.42;17.90;;;8.70;99.90;;;;;;4995616;28;20076;-70
2022/03/19 06:41:57;;;;;;;20.55;18.45;;;8.70;99.90;;;;;;4993195;28;20470;-71
2022/03/19 06:44:23;;;;;;;21.63;17.58;;;8.80;99.90;;;;;;4996093;28;20034;-71
2022/03/19 06:46:49;;;;;;;23.02;20.73;;;9.00;99.90;;;;;;4996419;28;20070;-70
2022/03/19 06:49:15;;;;;;;23.35;19.85;;;9.00;99.90;;;;;;4996268;28;20030;-70
2022/03/19 06:51:40;;;;;;;21.13;18.92;;;9.10;99.90;;;;;;4994458;28;20038;-70
2022/03/19 06:54:06;;;;;;;20.33;17.33;;;9.20;99.90;;;;;;4993049;28;20040;-71
2022/03/19 06:56:32;;;;;;;21.77;18.67;;;9.30;99.90;;;;;;4994970;28;20495;-71
2022/03/19 06:58:58;;;;;;;24.02;17.40;;;9.40;99.90;;;;;;4996297;28;20044;-71
2022/03/19 07:01:24;;;;;;;25.67;18.73;;;9.50;99.90;;;;;;4996118;28;20471;-71
2022/03/19 07:03:50;;;;;;;22.80;17.90;;;9.70;99.90;;;;;;4995940;28;20022;-71
2022/03/19 07:06:18;;;;;;;23.27;18.25;;;9.80;99.90;;;;;;4993677;28;20546;-71
2022/03/19 07:08:45;;;;;;;26.33;18.42;;;9.90;99.90;;;;;;4991908;28;20022;-71
2022/03/19 07:11:11;;;;;;;20.77;15.38;;;10.10;99.90;;;;;;4997956;28;20026;-71
2022/03/19 07:13:37;;;;;;;20.55;16.10;;;10.30;99.90;;;;;;4995958;28;20081;-71
2022/03/19 07:16:06;;;;;;;19.60;14.20;;;10.50;99.90;;;;;;4994564;28;20042;-70
2022/03/19 07:18:32;;;;;;;17.40;14.18;;;10.70;99.90;;;;;;4994220;28;20029;-71
2022/03/19 07:20:58;;;;;;;20.02;13.77;;;11.00;99.90;;;;;;4992506;28;20038;-71
2022/03/19 07:23:23;;;;;;;19.48;13.63;;;10.90;99.90;;;;;;4995310;28;20023;-72
2022/03/19 07:25:49;;;;;;;18.33;14.13;;;11.20;99.90;;;;;;4995138;28;20968;-70
2022/03/19 07:28:17;;;;;;;18.02;14.18;;;11.30;99.90;;;;;;4993339;28;20030;-72
2022/03/19 07:30:44;;;;;;;16.48;13.55;;;11.60;99.90;;;;;;4995598;28;20041;-73
2022/03/19 07:33:11;;;;;;;20.10;13.65;;;11.70;99.90;;;;;;4993323;28;20038;-74
2022/03/19 07:35:38;;;;;;;17.58;12.30;;;11.80;99.90;;;;;;4991459;28;20381;-73
2022/03/19 07:38:05;;;;;;;15.23;12.27;;;12.60;99.90;;;;;;4989561;28;20027;-75
2022/03/19 07:43:16;;;;;;;18.35;12.70;;;12.80;99.90;;;;;;4996063;28;20041;-75
2022/03/19 07:45:42;;;;;;;15.82;12.13;;;12.70;99.90;;;;;;4995835;28;20030;-74
2022/03/19 07:48:09;;;;;;;14.35;11.43;;;13.00;99.90;;;;;;4993132;28;20045;-73
2022/03/19 07:50:35;;;;;;;14.77;11.18;;;13.70;99.90;;;;;;4991152;28;20080;-72
2022/03/19 07:53:01;;;;;;;15.13;11.32;;;13.90;99.90;;;;;;4997494;28;20023;-73
2022/03/19 07:55:27;;;;;;;14.77;11.00;;;14.40;99.90;;;;;;4995906;28;20491;-75
2022/03/19 07:57:53;;;;;;;17.92;10.98;;;14.60;99.90;;;;;;4994040;28;20033;-76
2022/03/19 08:00:19;;;;;;;15.93;11.55;;;14.40;99.90;;;;;;4994123;28;20087;-76
2022/03/19 08:02:45;;;;;;;12.60;10.65;;;14.10;99.90;;;;;;4990294;28;20041;-76
2022/03/19 08:05:12;;;;;;;17.42;10.88;;;14.90;99.90;;;;;;4996462;28;20400;-75
2022/03/19 08:07:38;;;;;;;15.48;10.80;;;15.00;99.90;;;;;;4995166;28;20407;-75
2022/03/19 08:10:06;;;;;;;13.02;10.88;;;14.50;99.90;;;;;;4994896;28;20030;-76
2022/03/19 08:12:32;;;;;;;15.23;11.25;;;14.90;99.90;;;;;;4993517;28;20105;-73
2022/03/19 08:14:59;;;;;;;15.73;10.32;;;15.00;99.90;;;;;;4988061;28;20085;-74
2022/03/19 08:17:28;;;;;;;16.42;11.30;;;15.30;99.90;;;;;;4994634;28;20026;-74
2022/03/19 08:19:56;;;;;;;16.42;10.75;;;14.90;99.90;;;;;;4995925;28;20022;-74
2022/03/19 08:22:22;;;;;;;15.60;10.30;;;14.80;99.90;;;;;;4992508;28;20071;-74
2022/03/19 08:24:47;;;;;;;49.08;36.72;;;15.60;99.90;;;;;;4994606;28;20073;-69
2022/03/19 08:27:13;;;;;;;16.40;13.50;;;16.00;99.90;;;;;;4994265;28;20405;-69
2022/03/19 08:29:39;;;;;;;19.00;11.23;;;14.50;99.90;;;;;;4991396;28;20031;-69
2022/03/19 08:32:05;;;;;;;15.45;11.02;;;13.40;99.90;;;;;;4995955;28;20089;-68
2022/03/19 08:34:30;;;;;;;15.45;9.10;;;14.50;99.90;;;;;;4993883;28;20097;-68
2022/03/19 08:36:56;;;;;;;12.90;10.50;;;15.20;99.90;;;;;;4994478;28;20039;-68
2022/03/19 08:42:07;;;;;;;16.00;11.05;;;14.80;99.90;;;;;;4991587;28;20065;-68
2022/03/19 08:44:32;;;;;;;16.83;10.70;;;14.30;99.90;;;;;;4993202;28;20034;-67
2022/03/19 08:46:58;;;;;;;13.30;10.00;;;14.80;99.90;;;;;;4994517;28;20038;-66
2022/03/19 08:49:24;;;;;;;16.55;10.63;;;15.20;99.90;;;;;;4994604;28;20027;-66
2022/03/19 08:51:50;;;;;;;14.75;10.07;;;15.70;99.90;;;;;;4994950;28;20407;-68
2022/03/19 08:54:18;;;;;;;16.17;10.43;;;16.50;99.90;;;;;;4992797;28;20038;-67
2022/03/19 08:56:45;;;;;;;17.83;10.82;;;15.20;99.90;;;;;;4990677;28;20369;-67
2022/03/19 08:59:12;;;;;;;16.67;10.60;;;15.00;99.90;;;;;;4996878;28;20029;-67
2022/03/19 09:01:39;;;;;;;16.40;10.35;;;15.20;99.90;;;;;;4994273;28;20119;-67
2022/03/19 09:04:06;;;;;;;12.98;10.38;;;15.50;99.90;;;;;;4995521;28;20022;-66
2022/03/19 09:06:32;;;;;;;17.95;10.35;;;16.20;99.90;;;;;;4998092;28;20689;-66
2022/03/19 09:09:01;;;;;;;14.85;10.57;;;16.00;99.90;;;;;;4996142;28;20026;-67
2022/03/19 09:11:26;;;;;;;16.30;10.85;;;16.30;99.90;;;;;;4994497;28;20621;-67
2022/03/19 09:13:53;;;;;;;17.25;11.02;;;16.40;99.90;;;;;;4998002;28;20030;-67
2022/03/19 09:16:20;;;;;;;16.83;10.55;;;16.20;99.90;;;;;;4996867;28;20026;-67
2022/03/19 09:18:46;;;;;;;14.43;10.00;;;16.10;99.90;;;;;;4996885;28;20038;-66
2022/03/19 09:21:12;;;;;;;17.73;10.50;;;17.50;99.90;;;;;;4997343;28;20029;-67
2022/03/19 09:23:38;;;;;;;16.73;11.95;;;17.10;99.90;;;;;;4994765;28;20557;-68
2022/03/19 09:26:04;;;;;;;13.43;10.43;;;17.10;99.90;;;;;;4999106;28;20084;-73
2022/03/19 09:28:30;;;;;;;18.42;9.98;;;16.90;99.90;;;;;;4997925;28;20041;-72
2022/03/19 09:30:56;;;;;;;20.83;11.43;;;17.90;99.90;;;;;;4996680;28;20034;-71
2022/03/19 09:33:22;;;;;;;18.73;10.10;;;17.10;99.90;;;;;;4996360;28;20109;-69
2022/03/19 09:35:48;;;;;;;22.65;10.13;;;19.00;99.90;;;;;;4993631;28;20051;-68
2022/03/19 09:38:15;;;;;;;16.55;9.63;;;18.20;99.90;;;;;;4999922;28;20446;-67
2022/03/19 09:40:41;;;;;;;12.70;8.70;;;17.10;99.90;;;;;;4997496;28;20042;-68
2022/03/19 09:43:08;;;;;;;18.17;9.98;;;17.80;99.90;;;;;;4996310;28;20088;-69
2022/03/19 09:45:34;;;;;;;15.70;9.13;;;17.40;99.90;;;;;;4996724;28;20080;-67
2022/03/19 09:48:01;;;;;;;12.82;8.57;;;17.40;99.90;;;;;;4994705;28;20030;-67
2022/03/19 09:50:27;;;;;;;16.08;8.90;;;18.30;99.90;;;;;;4996592;28;20038;-67
2022/03/19 09:52:55;;;;;;;13.48;8.13;;;18.20;99.90;;;;;;4998976;28;20030;-67
2022/03/19 09:55:26;;;;;;;14.65;8.23;;;17.90;99.90;;;;;;4997396;28;20506;-67
2022/03/19 09:57:55;;;;;;;14.00;8.90;;;18.30;99.90;;;;;;4997457;28;20050;-68
2022/03/19 10:00:24;;;;;;;14.52;9.07;;;18.50;99.90;;;;;;4995659;28;20033;-68
2022/03/19 10:03:02;;;;;;;13.68;8.40;;;18.50;99.90;;;;;;4991850;28;20022;-67
2022/03/19 10:08:37;;;;;;;193.13;34.25;;;17.50;99.90;;;;;;5007784;28;20380;-73
2022/03/19 10:11:08;;;;;;;49.35;12.75;;;18.30;99.90;;;;;;4996446;28;20561;-72
2022/03/19 10:13:38;;;;;;;78.68;17.42;;;18.50;98.60;;;;;;4995291;28;20468;-72
2022/03/19 10:16:05;;;;;;;76.38;17.50;;;18.90;98.90;;;;;;4997022;28;20045;-71
2022/03/19 10:18:32;;;;;;;24.35;9.10;;;19.20;96.50;;;;;;4996866;28;20057;-69
2022/03/19 10:21:14;;;;;;;52.70;13.55;;;18.10;96.10;;;;;;4992519;28;20039;-67
2022/03/19 10:23:41;;;;;;;42.13;12.52;;;18.00;96.30;;;;;;4993350;28;20028;-68
2022/03/19 10:26:28;;;;;;;30.15;10.15;;;18.50;94.80;;;;;;4998377;28;20558;-68
2022/03/19 10:29:09;;;;;;;74.65;17.60;;;18.30;95.50;;;;;;4994924;28;20034;-69
2022/03/19 10:31:46;;;;;;;42.58;11.38;;;18.90;94.60;;;;;;4997852;28;20034;-65
2022/03/19 10:34:13;;;;;;;14.90;8.02;;;18.40;94.10;;;;;;4996895;28;20032;-69
2022/03/19 10:36:44;;;;;;;13.73;7.07;;;18.30;95.30;;;;;;4995350;28;20026;-67
2022/03/19 10:39:22;;;;;;;12.93;7.68;;;19.10;94.70;;;;;;4993741;28;20037;-67
2022/03/19 10:41:51;;;;;;;10.98;7.38;;;18.30;93.30;;;;;;4975572;28;20450;-66
2022/03/19 10:44:22;;;;;;;14.02;7.95;;;18.50;93.50;;;;;;5006209;28;20064;-67
2022/03/19 10:46:57;;;;;;;10.85;7.82;;;18.80;93.80;;;;;;4996113;28;20045;-66
2022/03/19 10:49:28;;;;;;;11.77;7.55;;;18.70;92.90;;;;;;4996429;28;20483;-66
2022/03/19 10:51:56;;;;;;;12.50;7.53;;;18.90;92.50;;;;;;4994813;28;20030;-67
2022/03/19 10:54:22;;;;;;;15.32;8.15;;;18.60;93.70;;;;;;4996336;28;20029;-67
2022/03/19 10:56:50;;;;;;;13.38;8.10;;;19.80;93.20;;;;;;4991809;28;20035;-67
2022/03/19 10:59:16;;;;;;;15.48;7.63;;;19.30;92.20;;;;;;5005508;28;20026;-67
2022/03/19 11:01:43;;;;;;;14.20;7.55;;;19.40;91.80;;;;;;4996730;28;20038;-67
2022/03/19 11:04:11;;;;;;;13.63;8.05;;;18.90;92.40;;;;;;4996187;28;20035;-67
2022/03/19 11:06:39;;;;;;;14.60;7.60;;;19.50;91.60;;;;;;4996069;28;20061;-68
2022/03/19 11:09:09;;;;;;;15.18;7.75;;;19.70;91.90;;;;;;4994128;28;20030;-67
2022/03/19 11:11:44;;;;;;;14.27;8.30;;;19.80;91.50;;;;;;4992574;28;20133;-66
2022/03/19 11:14:19;;;;;;;12.88;7.45;;;19.50;91.70;;;;;;4996869;28;20388;-66
2022/03/19 11:17:23;;;;;;;12.38;7.63;;;19.10;91.90;;;;;;4996218;28;20045;-69
2022/03/19 11:19:36;;;;;;;13.32;8.18;;;19.50;91.40;;;;;;4994121;28;20161;-64
2022/03/19 11:22:02;;;;;;;16.00;8.38;;;18.80;91.80;;;;;;4994924;28;20038;-67
2022/03/19 11:24:36;;;;;;;12.07;7.72;;;18.40;90.90;;;;;;4995603;28;20018;-69
2022/03/19 11:27:03;;;;;;;13.90;8.48;;;18.40;90.30;;;;;;4990375;28;20484;-69
2022/03/19 11:29:29;;;;;;;14.02;8.85;;;19.00;90.90;;;;;;4994329;28;20106;-69
2022/03/19 11:31:59;;;;;;;14.50;8.00;;;19.20;90.20;;;;;;4995895;28;20150;-69
2022/03/19 11:34:25;;;;;;;14.02;8.32;;;19.20;89.20;;;;;;4995656;28;20023;-68
2022/03/19 11:37:00;;;;;;;13.88;8.55;;;19.10;89.80;;;;;;4995548;28;20037;-68
2022/03/19 11:39:27;;;;;;;12.70;8.23;;;18.90;87.20;;;;;;4994250;28;20018;-68
2022/03/19 11:41:53;;;;;;;12.48;8.20;;;18.70;87.30;;;;;;4991202;28;20055;-73
2022/03/19 11:44:24;;;;;;;13.90;8.63;;;18.90;87.30;;;;;;4996483;28;20021;-70
2022/03/19 11:46:58;;;;;;;14.13;8.98;;;19.60;86.60;;;;;;4994982;28;20073;-72
2022/03/19 11:49:52;;;;;;;15.27;8.13;;;19.70;85.80;;;;;;4995537;28;20026;-67
2022/03/19 11:52:24;;;;;;;12.23;8.15;;;19.70;85.40;;;;;;4995338;28;20038;-71
2022/03/19 11:55:04;;;;;;;16.63;8.73;;;20.10;85.70;;;;;;4995449;28;20039;-69
2022/03/19 11:57:45;;;;;;;12.00;7.88;;;19.90;84.10;;;;;;4993735;28;20029;-67
2022/03/19 12:00:14;;;;;;;15.65;8.52;;;19.90;85.50;;;;;;4994197;28;20021;-73
2022/03/19 12:03:02;;;;;;;12.52;8.05;;;20.30;84.60;;;;;;4991975;28;20038;-72
2022/03/19 12:05:28;;;;;;;14.38;8.05;;;19.60;86.90;;;;;;5005084;28;20034;-72
2022/03/19 12:07:57;;;;;;;16.95;8.30;;;20.10;86.70;;;;;;4996452;28;20027;-74
2022/03/19 12:10:31;;;;;;;17.40;8.60;;;20.30;85.50;;;;;;4993313;28;20030;-74
2022/03/19 12:12:57;;;;;;;19.38;8.43;;;19.70;84.60;;;;;;4994944;28;20395;-74
2022/03/19 12:15:32;;;;;;;16.13;8.80;;;19.30;85.80;;;;;;4995365;28;20030;-72
2022/03/19 12:18:24;;;;;;;17.67;8.52;;;19.80;86.80;;;;;;4990680;28;20055;-73
2022/03/19 12:20:51;;;;;;;15.43;8.60;;;19.50;86.00;;;;;;4975739;28;20575;-73
2022/03/19 12:23:17;;;;;;;16.98;9.05;;;19.70;85.60;;;;;;4996301;28;20391;-78
2022/03/19 12:25:49;;;;;;;13.30;8.52;;;19.80;87.40;;;;;;4994727;28;20030;-73
2022/03/19 12:28:16;;;;;;;16.83;9.10;;;19.60;88.10;;;;;;4994662;28;20026;-74
2022/03/19 12:30:42;;;;;;;14.93;8.77;;;19.50;88.70;;;;;;4993330;28;20026;-72
2022/03/19 12:33:08;;;;;;;17.65;8.60;;;19.90;87.80;;;;;;4993334;28;20034;-72
2022/03/19 12:35:42;;;;;;;14.63;9.18;;;19.50;86.70;;;;;;4992959;28;20049;-71
2022/03/19 12:38:08;;;;;;;19.73;8.85;;;19.20;88.40;;;;;;4997756;28;20023;-71
2022/03/19 12:43:21;;;;;;;12.07;8.52;;;20.10;87.20;;;;;;4998558;28;20037;-70
2022/03/19 12:45:49;;;;;;;19.77;8.52;;;19.90;87.90;;;;;;4994577;28;20057;-70
2022/03/19 12:48:20;;;;;;;16.52;8.73;;;19.70;87.30;;;;;;4995165;28;20026;-70
2022/03/19 12:50:54;;;;;;;18.92;8.43;;;19.50;86.40;;;;;;4994332;28;20038;-70
2022/03/19 12:53:40;;;;;;;17.67;8.77;;;19.50;86.60;;;;;;5008335;28;20029;-70